sensor_id;sensor_type;location;lat;lon;timestamp;P1;durP1;ratioP1;P2;durP2;ratioP2
65896;SDS011;52677;50.898;10.854;2024-01-15T00:00:40;17.25;;;7.75;;
65896;SDS011;52677;50.898;10.854;2024-01-15T00:02:41;15.10;;;7.55;;
65896;SDS011;52677;50.898;10.854;2024-01-15T00:04:41;16.05;;;7.18;;
65896;SDS011;52677;50.898;10.854;2024-01-15T00:06:41;18.98;;;8.25;;
65896;SDS011;52677;50.898;10.854;2024-01-15T00:08:42;17.55;;;7.80;;
65896;SDS011;52677;50.898;10.854;2024-01-15T00:10:42;14.68;;;7.75;;
65896;SDS011;52677;50.898;10.854;2024-01-15T00:12:42;16.30;;;8.50;;
65896;SDS011;52677;50.898;10.854;2024-01-15T00:14:43;17.52;;;7.85;;
65896;SDS011;52677;50.898;10.854;2024-01-15T00:16:43;18.95;;;7.90;;
65896;SDS011;52677;50.898;10.854;2024-01-15T00:18:43;16.65;;;8.35;;
65896;SDS011;52677;50.898;10.854;2024-01-15T00:20:44;16.80;;;7.85;;
65896;SDS011;52677;50.898;10.854;2024-01-15T00:22:44;17.13;;;8.45;;
65896;SDS011;52677;50.898;10.854;2024-01-15T00:24:44;17.30;;;8.15;;
65896;SDS011;52677;50.898;10.854;2024-01-15T00:26:44;16.63;;;7.03;;
65896;SDS011;52677;50.898;10.854;2024-01-15T00:28:45;17.85;;;8.07;;
65896;SDS011;52677;50.898;10.854;2024-01-15T00:30:45;17.35;;;8.15;;
65896;SDS011;52677;50.898;10.854;2024-01-15T00:32:45;14.13;;;6.95;;
65896;SDS011;52677;50.898;10.854;2024-01-15T00:34:46;16.98;;;7.80;;
65896;SDS011;52677;50.898;10.854;2024-01-15T00:36:46;18.65;;;8.18;;
65896;SDS011;52677;50.898;10.854;2024-01-15T00:38:47;14.65;;;7.68;;
65896;SDS011;52677;50.898;10.854;2024-01-15T00:40:47;14.90;;;7.28;;
65896;SDS011;52677;50.898;10.854;2024-01-15T00:42:47;14.18;;;8.10;;
65896;SDS011;52677;50.898;10.854;2024-01-15T00:44:48;17.05;;;8.05;;
65896;SDS011;52677;50.898;10.854;2024-01-15T00:46:48;19.52;;;8.05;;
65896;SDS011;52677;50.898;10.854;2024-01-15T00:48:48;14.82;;;7.25;;
65896;SDS011;52677;50.898;10.854;2024-01-15T00:50:49;21.92;;;9.70;;
65896;SDS011;52677;50.898;10.854;2024-01-15T00:52:49;14.52;;;7.25;;
65896;SDS011;52677;50.898;10.854;2024-01-15T00:54:49;12.55;;;5.90;;
65896;SDS011;52677;50.898;10.854;2024-01-15T00:56:49;16.98;;;7.35;;
65896;SDS011;52677;50.898;10.854;2024-01-15T00:58:50;13.13;;;6.88;;
65896;SDS011;52677;50.898;10.854;2024-01-15T01:00:50;13.23;;;6.97;;
65896;SDS011;52677;50.898;10.854;2024-01-15T01:02:50;15.48;;;7.97;;
65896;SDS011;52677;50.898;10.854;2024-01-15T01:04:51;17.80;;;7.65;;
65896;SDS011;52677;50.898;10.854;2024-01-15T01:06:51;16.05;;;7.22;;
65896;SDS011;52677;50.898;10.854;2024-01-15T01:08:51;12.05;;;6.15;;
65896;SDS011;52677;50.898;10.854;2024-01-15T01:10:51;15.50;;;7.20;;
65896;SDS011;52677;50.898;10.854;2024-01-15T01:12:52;13.88;;;6.40;;
65896;SDS011;52677;50.898;10.854;2024-01-15T01:14:52;13.98;;;6.60;;
65896;SDS011;52677;50.898;10.854;2024-01-15T01:16:52;16.70;;;8.20;;
65896;SDS011;52677;50.898;10.854;2024-01-15T01:18:53;14.15;;;6.45;;
65896;SDS011;52677;50.898;10.854;2024-01-15T01:20:53;17.83;;;6.95;;
65896;SDS011;52677;50.898;10.854;2024-01-15T01:22:53;14.82;;;6.70;;
65896;SDS011;52677;50.898;10.854;2024-01-15T01:24:53;17.65;;;6.95;;
65896;SDS011;52677;50.898;10.854;2024-01-15T01:26:54;14.35;;;7.38;;
65896;SDS011;52677;50.898;10.854;2024-01-15T01:28:54;15.13;;;7.85;;
65896;SDS011;52677;50.898;10.854;2024-01-15T01:30:54;17.05;;;7.78;;
65896;SDS011;52677;50.898;10.854;2024-01-15T01:32:55;17.95;;;8.15;;
65896;SDS011;52677;50.898;10.854;2024-01-15T01:34:55;15.57;;;7.53;;
65896;SDS011;52677;50.898;10.854;2024-01-15T01:36:55;13.82;;;7.05;;
65896;SDS011;52677;50.898;10.854;2024-01-15T01:38:56;17.13;;;6.75;;
65896;SDS011;52677;50.898;10.854;2024-01-15T01:40:56;17.27;;;7.90;;
65896;SDS011;52677;50.898;10.854;2024-01-15T01:42:56;13.35;;;6.60;;
65896;SDS011;52677;50.898;10.854;2024-01-15T01:44:57;20.02;;;7.75;;
65896;SDS011;52677;50.898;10.854;2024-01-15T01:46:58;17.25;;;7.47;;
65896;SDS011;52677;50.898;10.854;2024-01-15T01:48:59;17.33;;;7.97;;
65896;SDS011;52677;50.898;10.854;2024-01-15T01:51:05;15.32;;;7.10;;
65896;SDS011;52677;50.898;10.854;2024-01-15T01:53:05;16.13;;;6.72;;
65896;SDS011;52677;50.898;10.854;2024-01-15T01:55:06;14.02;;;6.68;;
65896;SDS011;52677;50.898;10.854;2024-01-15T01:57:09;15.70;;;7.53;;
65896;SDS011;52677;50.898;10.854;2024-01-15T01:59:11;13.38;;;6.32;;
65896;SDS011;52677;50.898;10.854;2024-01-15T02:01:12;16.23;;;7.05;;
65896;SDS011;52677;50.898;10.854;2024-01-15T02:03:12;14.48;;;7.35;;
65896;SDS011;52677;50.898;10.854;2024-01-15T02:05:13;16.17;;;7.82;;
65896;SDS011;52677;50.898;10.854;2024-01-15T02:07:18;15.82;;;7.00;;
65896;SDS011;52677;50.898;10.854;2024-01-15T02:09:18;13.98;;;6.40;;
65896;SDS011;52677;50.898;10.854;2024-01-15T02:11:18;13.93;;;6.80;;
65896;SDS011;52677;50.898;10.854;2024-01-15T02:13:19;12.00;;;6.28;;
65896;SDS011;52677;50.898;10.854;2024-01-15T02:15:20;14.27;;;6.88;;
65896;SDS011;52677;50.898;10.854;2024-01-15T02:17:20;17.45;;;7.40;;
65896;SDS011;52677;50.898;10.854;2024-01-15T02:19:21;16.63;;;7.00;;
65896;SDS011;52677;50.898;10.854;2024-01-15T02:21:21;14.45;;;6.90;;
65896;SDS011;52677;50.898;10.854;2024-01-15T02:23:21;12.07;;;6.90;;
65896;SDS011;52677;50.898;10.854;2024-01-15T02:25:22;14.20;;;6.57;;
65896;SDS011;52677;50.898;10.854;2024-01-15T02:27:22;14.98;;;6.93;;
65896;SDS011;52677;50.898;10.854;2024-01-15T02:29:22;13.80;;;7.03;;
65896;SDS011;52677;50.898;10.854;2024-01-15T02:31:23;13.93;;;6.07;;
65896;SDS011;52677;50.898;10.854;2024-01-15T02:33:23;16.50;;;6.80;;
65896;SDS011;52677;50.898;10.854;2024-01-15T02:35:24;14.85;;;6.80;;
65896;SDS011;52677;50.898;10.854;2024-01-15T02:37:24;13.63;;;6.55;;
65896;SDS011;52677;50.898;10.854;2024-01-15T02:39:24;12.30;;;5.90;;
65896;SDS011;52677;50.898;10.854;2024-01-15T02:41:24;12.38;;;6.00;;
65896;SDS011;52677;50.898;10.854;2024-01-15T02:43:25;11.25;;;6.50;;
65896;SDS011;52677;50.898;10.854;2024-01-15T02:45:25;12.30;;;6.18;;
65896;SDS011;52677;50.898;10.854;2024-01-15T02:47:26;14.02;;;7.60;;
65896;SDS011;52677;50.898;10.854;2024-01-15T02:49:26;16.85;;;7.75;;
65896;SDS011;52677;50.898;10.854;2024-01-15T02:51:26;12.35;;;6.68;;
65896;SDS011;52677;50.898;10.854;2024-01-15T02:53:26;12.52;;;6.32;;
65896;SDS011;52677;50.898;10.854;2024-01-15T02:55:27;11.65;;;6.07;;
65896;SDS011;52677;50.898;10.854;2024-01-15T02:57:29;16.73;;;7.05;;
65896;SDS011;52677;50.898;10.854;2024-01-15T02:59:29;16.38;;;6.80;;
65896;SDS011;52677;50.898;10.854;2024-01-15T03:01:30;12.80;;;6.45;;
65896;SDS011;52677;50.898;10.854;2024-01-15T03:03:30;14.95;;;7.38;;
65896;SDS011;52677;50.898;10.854;2024-01-15T03:05:30;12.40;;;5.90;;
65896;SDS011;52677;50.898;10.854;2024-01-15T03:07:30;12.95;;;5.40;;
65896;SDS011;52677;50.898;10.854;2024-01-15T03:09:31;14.48;;;6.38;;
65896;SDS011;52677;50.898;10.854;2024-01-15T03:11:37;13.13;;;6.45;;
65896;SDS011;52677;50.898;10.854;2024-01-15T03:13:38;11.88;;;6.78;;
65896;SDS011;52677;50.898;10.854;2024-01-15T03:15:39;14.77;;;6.03;;
65896;SDS011;52677;50.898;10.854;2024-01-15T03:17:40;13.52;;;6.40;;
65896;SDS011;52677;50.898;10.854;2024-01-15T03:19:42;13.30;;;6.50;;
65896;SDS011;52677;50.898;10.854;2024-01-15T03:21:42;15.77;;;5.93;;
65896;SDS011;52677;50.898;10.854;2024-01-15T03:23:43;11.50;;;6.00;;
65896;SDS011;52677;50.898;10.854;2024-01-15T03:25:43;16.15;;;8.27;;
65896;SDS011;52677;50.898;10.854;2024-01-15T03:27:44;13.05;;;6.53;;
65896;SDS011;52677;50.898;10.854;2024-01-15T03:29:44;11.18;;;6.60;;
65896;SDS011;52677;50.898;10.854;2024-01-15T03:31:45;13.38;;;6.00;;
65896;SDS011;52677;50.898;10.854;2024-01-15T03:33:45;11.65;;;5.75;;
65896;SDS011;52677;50.898;10.854;2024-01-15T03:35:45;13.30;;;6.03;;
65896;SDS011;52677;50.898;10.854;2024-01-15T03:37:46;9.63;;;5.38;;
65896;SDS011;52677;50.898;10.854;2024-01-15T03:39:46;12.02;;;5.63;;
65896;SDS011;52677;50.898;10.854;2024-01-15T03:41:46;10.27;;;5.85;;
65896;SDS011;52677;50.898;10.854;2024-01-15T03:43:46;12.52;;;6.15;;
65896;SDS011;52677;50.898;10.854;2024-01-15T03:45:47;11.63;;;5.60;;
65896;SDS011;52677;50.898;10.854;2024-01-15T03:47:47;9.70;;;5.80;;
65896;SDS011;52677;50.898;10.854;2024-01-15T03:49:47;12.65;;;5.80;;
65896;SDS011;52677;50.898;10.854;2024-01-15T03:51:48;11.02;;;5.40;;
65896;SDS011;52677;50.898;10.854;2024-01-15T03:53:48;12.85;;;5.35;;
65896;SDS011;52677;50.898;10.854;2024-01-15T03:55:49;11.23;;;5.55;;
65896;SDS011;52677;50.898;10.854;2024-01-15T03:57:49;12.55;;;6.68;;
65896;SDS011;52677;50.898;10.854;2024-01-15T03:59:49;13.88;;;5.95;;
65896;SDS011;52677;50.898;10.854;2024-01-15T04:01:50;9.98;;;5.38;;
65896;SDS011;52677;50.898;10.854;2024-01-15T04:03:50;10.95;;;5.32;;
65896;SDS011;52677;50.898;10.854;2024-01-15T04:05:51;13.57;;;5.70;;
65896;SDS011;52677;50.898;10.854;2024-01-15T04:07:51;12.38;;;5.80;;
65896;SDS011;52677;50.898;10.854;2024-01-15T04:09:51;11.48;;;5.95;;
65896;SDS011;52677;50.898;10.854;2024-01-15T04:11:52;12.55;;;5.70;;
65896;SDS011;52677;50.898;10.854;2024-01-15T04:13:52;11.48;;;5.80;;
65896;SDS011;52677;50.898;10.854;2024-01-15T04:15:52;9.65;;;5.45;;
65896;SDS011;52677;50.898;10.854;2024-01-15T04:17:53;10.82;;;5.50;;
65896;SDS011;52677;50.898;10.854;2024-01-15T04:19:53;11.10;;;5.55;;
65896;SDS011;52677;50.898;10.854;2024-01-15T04:21:53;9.23;;;4.72;;
65896;SDS011;52677;50.898;10.854;2024-01-15T04:23:53;11.60;;;5.45;;
65896;SDS011;52677;50.898;10.854;2024-01-15T04:25:54;8.90;;;4.70;;
65896;SDS011;52677;50.898;10.854;2024-01-15T04:27:54;13.00;;;6.53;;
65896;SDS011;52677;50.898;10.854;2024-01-15T04:29:54;9.45;;;5.47;;
65896;SDS011;52677;50.898;10.854;2024-01-15T04:31:55;8.57;;;4.82;;
65896;SDS011;52677;50.898;10.854;2024-01-15T04:33:55;13.25;;;5.70;;
65896;SDS011;52677;50.898;10.854;2024-01-15T04:35:55;9.40;;;4.78;;
65896;SDS011;52677;50.898;10.854;2024-01-15T04:37:56;10.02;;;5.55;;
65896;SDS011;52677;50.898;10.854;2024-01-15T04:39:56;11.52;;;5.35;;
65896;SDS011;52677;50.898;10.854;2024-01-15T04:41:57;9.73;;;5.10;;
65896;SDS011;52677;50.898;10.854;2024-01-15T04:43:57;14.45;;;5.97;;
65896;SDS011;52677;50.898;10.854;2024-01-15T04:45:58;10.02;;;5.85;;
65896;SDS011;52677;50.898;10.854;2024-01-15T04:47:59;9.20;;;5.47;;
65896;SDS011;52677;50.898;10.854;2024-01-15T04:49:59;11.07;;;5.60;;
65896;SDS011;52677;50.898;10.854;2024-01-15T04:51:59;12.02;;;6.63;;
65896;SDS011;52677;50.898;10.854;2024-01-15T04:54:00;9.30;;;5.32;;
65896;SDS011;52677;50.898;10.854;2024-01-15T04:56:01;9.63;;;6.07;;
65896;SDS011;52677;50.898;10.854;2024-01-15T04:58:02;9.00;;;5.20;;
65896;SDS011;52677;50.898;10.854;2024-01-15T05:00:02;10.18;;;5.38;;
65896;SDS011;52677;50.898;10.854;2024-01-15T05:02:03;12.02;;;5.55;;
65896;SDS011;52677;50.898;10.854;2024-01-15T05:04:03;11.60;;;5.88;;
65896;SDS011;52677;50.898;10.854;2024-01-15T05:06:03;10.57;;;5.35;;
65896;SDS011;52677;50.898;10.854;2024-01-15T05:08:04;11.00;;;5.40;;
65896;SDS011;52677;50.898;10.854;2024-01-15T05:10:05;15.88;;;5.85;;
65896;SDS011;52677;50.898;10.854;2024-01-15T05:12:07;8.85;;;5.93;;
65896;SDS011;52677;50.898;10.854;2024-01-15T05:14:07;10.98;;;6.25;;
65896;SDS011;52677;50.898;10.854;2024-01-15T05:16:08;13.30;;;6.07;;
65896;SDS011;52677;50.898;10.854;2024-01-15T05:18:08;12.20;;;7.28;;
65896;SDS011;52677;50.898;10.854;2024-01-15T05:20:09;14.68;;;6.20;;
65896;SDS011;52677;50.898;10.854;2024-01-15T05:22:09;12.75;;;6.93;;
65896;SDS011;52677;50.898;10.854;2024-01-15T05:24:10;12.27;;;6.40;;
65896;SDS011;52677;50.898;10.854;2024-01-15T05:26:10;16.73;;;7.80;;
65896;SDS011;52677;50.898;10.854;2024-01-15T05:28:10;14.20;;;7.32;;
65896;SDS011;52677;50.898;10.854;2024-01-15T05:30:11;16.95;;;7.93;;
65896;SDS011;52677;50.898;10.854;2024-01-15T05:32:12;14.80;;;7.25;;
65896;SDS011;52677;50.898;10.854;2024-01-15T05:34:12;14.23;;;7.68;;
65896;SDS011;52677;50.898;10.854;2024-01-15T05:36:12;12.85;;;6.28;;
65896;SDS011;52677;50.898;10.854;2024-01-15T05:38:12;12.68;;;7.13;;
65896;SDS011;52677;50.898;10.854;2024-01-15T05:40:13;10.85;;;6.40;;
65896;SDS011;52677;50.898;10.854;2024-01-15T05:42:13;10.57;;;5.55;;
65896;SDS011;52677;50.898;10.854;2024-01-15T05:44:13;10.80;;;5.90;;
65896;SDS011;52677;50.898;10.854;2024-01-15T05:46:14;11.32;;;5.80;;
65896;SDS011;52677;50.898;10.854;2024-01-15T05:48:15;10.90;;;5.93;;
65896;SDS011;52677;50.898;10.854;2024-01-15T05:50:15;11.38;;;5.18;;
65896;SDS011;52677;50.898;10.854;2024-01-15T05:52:16;12.88;;;6.07;;
65896;SDS011;52677;50.898;10.854;2024-01-15T05:54:18;9.55;;;5.22;;
65896;SDS011;52677;50.898;10.854;2024-01-15T05:56:18;10.70;;;5.68;;
65896;SDS011;52677;50.898;10.854;2024-01-15T05:58:19;10.45;;;5.70;;
65896;SDS011;52677;50.898;10.854;2024-01-15T06:00:19;9.05;;;5.22;;
65896;SDS011;52677;50.898;10.854;2024-01-15T06:02:19;10.02;;;5.30;;
65896;SDS011;52677;50.898;10.854;2024-01-15T06:04:20;12.07;;;5.97;;
65896;SDS011;52677;50.898;10.854;2024-01-15T06:06:20;10.45;;;5.25;;
65896;SDS011;52677;50.898;10.854;2024-01-15T06:08:20;9.35;;;4.53;;
65896;SDS011;52677;50.898;10.854;2024-01-15T06:10:21;11.48;;;5.63;;
65896;SDS011;52677;50.898;10.854;2024-01-15T06:12:21;14.40;;;5.70;;
65896;SDS011;52677;50.898;10.854;2024-01-15T06:14:21;8.55;;;5.25;;
65896;SDS011;52677;50.898;10.854;2024-01-15T06:16:22;9.20;;;5.43;;
65896;SDS011;52677;50.898;10.854;2024-01-15T06:18:23;8.77;;;5.20;;
65896;SDS011;52677;50.898;10.854;2024-01-15T06:20:24;9.75;;;4.55;;
65896;SDS011;52677;50.898;10.854;2024-01-15T06:22:24;11.38;;;5.10;;
65896;SDS011;52677;50.898;10.854;2024-01-15T06:24:24;9.02;;;4.88;;
65896;SDS011;52677;50.898;10.854;2024-01-15T06:26:24;11.38;;;5.32;;
65896;SDS011;52677;50.898;10.854;2024-01-15T06:28:25;11.07;;;5.18;;
65896;SDS011;52677;50.898;10.854;2024-01-15T06:30:25;8.25;;;4.68;;
65896;SDS011;52677;50.898;10.854;2024-01-15T06:32:26;11.57;;;4.57;;
65896;SDS011;52677;50.898;10.854;2024-01-15T06:34:26;8.63;;;4.82;;
65896;SDS011;52677;50.898;10.854;2024-01-15T06:36:26;10.18;;;4.60;;
65896;SDS011;52677;50.898;10.854;2024-01-15T06:38:26;6.97;;;4.20;;
65896;SDS011;52677;50.898;10.854;2024-01-15T06:40:27;8.77;;;4.93;;
65896;SDS011;52677;50.898;10.854;2024-01-15T06:42:27;12.25;;;5.32;;
65896;SDS011;52677;50.898;10.854;2024-01-15T06:44:27;10.50;;;5.47;;
65896;SDS011;52677;50.898;10.854;2024-01-15T06:46:28;9.95;;;4.78;;
65896;SDS011;52677;50.898;10.854;2024-01-15T06:48:28;11.65;;;5.78;;
65896;SDS011;52677;50.898;10.854;2024-01-15T06:50:28;11.82;;;4.97;;
65896;SDS011;52677;50.898;10.854;2024-01-15T06:52:29;8.80;;;4.70;;
65896;SDS011;52677;50.898;10.854;2024-01-15T06:54:29;11.30;;;5.50;;
65896;SDS011;52677;50.898;10.854;2024-01-15T06:56:29;8.77;;;4.95;;
65896;SDS011;52677;50.898;10.854;2024-01-15T06:58:31;10.32;;;4.95;;
65896;SDS011;52677;50.898;10.854;2024-01-15T07:00:31;11.23;;;4.72;;
65896;SDS011;52677;50.898;10.854;2024-01-15T07:02:31;10.65;;;5.05;;
65896;SDS011;52677;50.898;10.854;2024-01-15T07:04:32;11.43;;;5.00;;
65896;SDS011;52677;50.898;10.854;2024-01-15T07:06:32;11.57;;;5.43;;
65896;SDS011;52677;50.898;10.854;2024-01-15T07:08:33;11.10;;;5.35;;
65896;SDS011;52677;50.898;10.854;2024-01-15T07:10:33;11.80;;;5.47;;
65896;SDS011;52677;50.898;10.854;2024-01-15T07:12:33;11.60;;;5.10;;
65896;SDS011;52677;50.898;10.854;2024-01-15T07:14:34;10.13;;;5.45;;
65896;SDS011;52677;50.898;10.854;2024-01-15T07:16:35;13.90;;;6.03;;
65896;SDS011;52677;50.898;10.854;2024-01-15T07:18:35;15.07;;;5.25;;
65896;SDS011;52677;50.898;10.854;2024-01-15T07:20:36;14.00;;;5.32;;
65896;SDS011;52677;50.898;10.854;2024-01-15T07:22:36;11.60;;;5.75;;
65896;SDS011;52677;50.898;10.854;2024-01-15T07:24:37;10.15;;;5.47;;
65896;SDS011;52677;50.898;10.854;2024-01-15T07:26:37;10.65;;;5.85;;
65896;SDS011;52677;50.898;10.854;2024-01-15T07:28:38;10.73;;;5.00;;
65896;SDS011;52677;50.898;10.854;2024-01-15T07:30:41;9.82;;;4.78;;
65896;SDS011;52677;50.898;10.854;2024-01-15T07:32:41;10.98;;;5.25;;
65896;SDS011;52677;50.898;10.854;2024-01-15T07:34:42;10.35;;;5.18;;
65896;SDS011;52677;50.898;10.854;2024-01-15T07:36:43;11.52;;;5.47;;
65896;SDS011;52677;50.898;10.854;2024-01-15T07:38:44;14.77;;;5.50;;
65896;SDS011;52677;50.898;10.854;2024-01-15T07:40:44;11.73;;;5.95;;
65896;SDS011;52677;50.898;10.854;2024-01-15T07:42:49;13.82;;;6.72;;
65896;SDS011;52677;50.898;10.854;2024-01-15T07:44:49;12.32;;;6.22;;
65896;SDS011;52677;50.898;10.854;2024-01-15T07:46:51;10.30;;;5.72;;
65896;SDS011;52677;50.898;10.854;2024-01-15T07:48:51;10.23;;;5.22;;
65896;SDS011;52677;50.898;10.854;2024-01-15T07:50:56;11.82;;;5.30;;
65896;SDS011;52677;50.898;10.854;2024-01-15T07:52:56;14.20;;;5.63;;
65896;SDS011;52677;50.898;10.854;2024-01-15T07:54:56;12.48;;;5.78;;
65896;SDS011;52677;50.898;10.854;2024-01-15T07:57:00;9.88;;;5.30;;
65896;SDS011;52677;50.898;10.854;2024-01-15T07:59:04;13.90;;;6.43;;
65896;SDS011;52677;50.898;10.854;2024-01-15T08:01:04;8.98;;;4.53;;
65896;SDS011;52677;50.898;10.854;2024-01-15T08:03:06;11.02;;;5.53;;
65896;SDS011;52677;50.898;10.854;2024-01-15T08:05:06;9.38;;;5.00;;
65896;SDS011;52677;50.898;10.854;2024-01-15T08:07:06;13.10;;;5.07;;
65896;SDS011;52677;50.898;10.854;2024-01-15T08:09:07;12.65;;;5.50;;
65896;SDS011;52677;50.898;10.854;2024-01-15T08:11:08;10.05;;;5.03;;
65896;SDS011;52677;50.898;10.854;2024-01-15T08:13:08;9.52;;;5.38;;
65896;SDS011;52677;50.898;10.854;2024-01-15T08:15:09;12.63;;;6.07;;
65896;SDS011;52677;50.898;10.854;2024-01-15T08:17:09;9.50;;;4.75;;
65896;SDS011;52677;50.898;10.854;2024-01-15T08:19:09;10.15;;;4.88;;
65896;SDS011;52677;50.898;10.854;2024-01-15T08:21:10;9.52;;;4.40;;
65896;SDS011;52677;50.898;10.854;2024-01-15T08:23:10;9.05;;;4.60;;
65896;SDS011;52677;50.898;10.854;2024-01-15T08:25:10;10.73;;;4.97;;
65896;SDS011;52677;50.898;10.854;2024-01-15T08:27:11;11.68;;;6.30;;
65896;SDS011;52677;50.898;10.854;2024-01-15T08:29:11;13.77;;;5.18;;
65896;SDS011;52677;50.898;10.854;2024-01-15T08:31:12;13.75;;;6.55;;
65896;SDS011;52677;50.898;10.854;2024-01-15T08:33:12;10.10;;;5.28;;
65896;SDS011;52677;50.898;10.854;2024-01-15T08:35:13;10.10;;;4.60;;
65896;SDS011;52677;50.898;10.854;2024-01-15T08:37:13;9.13;;;5.38;;
65896;SDS011;52677;50.898;10.854;2024-01-15T08:39:13;11.27;;;5.40;;
65896;SDS011;52677;50.898;10.854;2024-01-15T08:41:14;9.85;;;4.45;;
65896;SDS011;52677;50.898;10.854;2024-01-15T08:43:14;13.40;;;6.60;;
65896;SDS011;52677;50.898;10.854;2024-01-15T08:45:14;14.80;;;7.45;;
65896;SDS011;52677;50.898;10.854;2024-01-15T08:47:15;12.40;;;6.68;;
65896;SDS011;52677;50.898;10.854;2024-01-15T08:49:15;10.70;;;5.65;;
65896;SDS011;52677;50.898;10.854;2024-01-15T08:51:15;11.55;;;6.15;;
65896;SDS011;52677;50.898;10.854;2024-01-15T08:53:16;15.85;;;6.90;;
65896;SDS011;52677;50.898;10.854;2024-01-15T08:55:17;15.33;;;8.10;;
65896;SDS011;52677;50.898;10.854;2024-01-15T08:57:18;18.55;;;8.57;;
65896;SDS011;52677;50.898;10.854;2024-01-15T08:59:18;19.50;;;8.27;;
65896;SDS011;52677;50.898;10.854;2024-01-15T09:01:24;18.98;;;7.97;;
65896;SDS011;52677;50.898;10.854;2024-01-15T09:03:24;15.25;;;6.70;;
65896;SDS011;52677;50.898;10.854;2024-01-15T09:05:25;16.92;;;7.32;;
65896;SDS011;52677;50.898;10.854;2024-01-15T09:07:26;19.05;;;7.07;;
65896;SDS011;52677;50.898;10.854;2024-01-15T09:09:26;16.50;;;6.93;;
65896;SDS011;52677;50.898;10.854;2024-01-15T09:11:27;17.40;;;8.27;;
65896;SDS011;52677;50.898;10.854;2024-01-15T09:13:27;16.48;;;6.47;;
65896;SDS011;52677;50.898;10.854;2024-01-15T09:15:28;14.80;;;7.65;;
65896;SDS011;52677;50.898;10.854;2024-01-15T09:17:28;13.95;;;6.40;;
65896;SDS011;52677;50.898;10.854;2024-01-15T09:19:29;13.07;;;5.15;;
65896;SDS011;52677;50.898;10.854;2024-01-15T09:21:29;9.93;;;5.13;;
65896;SDS011;52677;50.898;10.854;2024-01-15T09:23:29;9.02;;;5.35;;
65896;SDS011;52677;50.898;10.854;2024-01-15T09:25:29;15.18;;;6.97;;
65896;SDS011;52677;50.898;10.854;2024-01-15T09:27:30;11.18;;;6.13;;
65896;SDS011;52677;50.898;10.854;2024-01-15T09:29:30;10.55;;;5.72;;
65896;SDS011;52677;50.898;10.854;2024-01-15T09:31:31;13.15;;;5.53;;
65896;SDS011;52677;50.898;10.854;2024-01-15T09:33:32;10.63;;;5.75;;
65896;SDS011;52677;50.898;10.854;2024-01-15T09:35:32;9.45;;;5.07;;
65896;SDS011;52677;50.898;10.854;2024-01-15T09:37:32;16.20;;;5.57;;
65896;SDS011;52677;50.898;10.854;2024-01-15T09:39:33;11.85;;;5.65;;
65896;SDS011;52677;50.898;10.854;2024-01-15T09:41:33;15.15;;;6.20;;
65896;SDS011;52677;50.898;10.854;2024-01-15T09:43:35;8.88;;;5.03;;
65896;SDS011;52677;50.898;10.854;2024-01-15T09:47:38;9.98;;;4.70;;
65896;SDS011;52677;50.898;10.854;2024-01-15T09:49:38;12.75;;;5.40;;
65896;SDS011;52677;50.898;10.854;2024-01-15T09:51:40;12.57;;;6.22;;
65896;SDS011;52677;50.898;10.854;2024-01-15T09:53:41;14.88;;;5.65;;
65896;SDS011;52677;50.898;10.854;2024-01-15T09:55:43;11.80;;;6.57;;
65896;SDS011;52677;50.898;10.854;2024-01-15T09:57:44;12.10;;;5.68;;
65896;SDS011;52677;50.898;10.854;2024-01-15T09:59:46;12.77;;;6.53;;
65896;SDS011;52677;50.898;10.854;2024-01-15T10:01:48;12.88;;;5.95;;
65896;SDS011;52677;50.898;10.854;2024-01-15T10:03:50;11.70;;;5.72;;
65896;SDS011;52677;50.898;10.854;2024-01-15T10:05:50;12.73;;;6.22;;
65896;SDS011;52677;50.898;10.854;2024-01-15T10:07:51;9.60;;;5.07;;
65896;SDS011;52677;50.898;10.854;2024-01-15T10:09:53;11.07;;;5.47;;
65896;SDS011;52677;50.898;10.854;2024-01-15T10:11:53;9.63;;;5.10;;
65896;SDS011;52677;50.898;10.854;2024-01-15T10:13:53;9.70;;;5.45;;
65896;SDS011;52677;50.898;10.854;2024-01-15T10:15:57;10.65;;;5.50;;
65896;SDS011;52677;50.898;10.854;2024-01-15T10:17:58;10.98;;;4.68;;
65896;SDS011;52677;50.898;10.854;2024-01-15T10:19:59;11.30;;;5.10;;
65896;SDS011;52677;50.898;10.854;2024-01-15T10:21:59;11.43;;;5.97;;
65896;SDS011;52677;50.898;10.854;2024-01-15T10:24:00;10.73;;;5.97;;
65896;SDS011;52677;50.898;10.854;2024-01-15T10:26:03;8.90;;;4.88;;
65896;SDS011;52677;50.898;10.854;2024-01-15T10:28:03;9.93;;;5.32;;
65896;SDS011;52677;50.898;10.854;2024-01-15T10:30:04;9.98;;;5.10;;
65896;SDS011;52677;50.898;10.854;2024-01-15T10:32:06;9.57;;;5.18;;
65896;SDS011;52677;50.898;10.854;2024-01-15T10:34:11;9.80;;;5.45;;
65896;SDS011;52677;50.898;10.854;2024-01-15T10:36:12;9.55;;;4.25;;
65896;SDS011;52677;50.898;10.854;2024-01-15T10:38:13;14.25;;;5.85;;
65896;SDS011;52677;50.898;10.854;2024-01-15T10:40:14;9.32;;;5.28;;
65896;SDS011;52677;50.898;10.854;2024-01-15T10:42:14;11.13;;;4.88;;
65896;SDS011;52677;50.898;10.854;2024-01-15T10:44:15;13.15;;;5.43;;
65896;SDS011;52677;50.898;10.854;2024-01-15T10:46:15;9.02;;;5.30;;
65896;SDS011;52677;50.898;10.854;2024-01-15T10:48:16;9.32;;;4.72;;
65896;SDS011;52677;50.898;10.854;2024-01-15T10:50:17;7.40;;;3.97;;
65896;SDS011;52677;50.898;10.854;2024-01-15T10:52:18;12.40;;;5.50;;
65896;SDS011;52677;50.898;10.854;2024-01-15T10:54:19;11.55;;;5.38;;
65896;SDS011;52677;50.898;10.854;2024-01-15T10:56:20;11.57;;;5.30;;
65896;SDS011;52677;50.898;10.854;2024-01-15T10:58:22;12.90;;;5.15;;
65896;SDS011;52677;50.898;10.854;2024-01-15T11:00:23;9.52;;;5.38;;
65896;SDS011;52677;50.898;10.854;2024-01-15T11:02:25;8.60;;;5.10;;
65896;SDS011;52677;50.898;10.854;2024-01-15T11:04:26;10.57;;;4.90;;
65896;SDS011;52677;50.898;10.854;2024-01-15T11:06:28;8.88;;;5.10;;
65896;SDS011;52677;50.898;10.854;2024-01-15T11:08:42;8.00;;;4.45;;
65896;SDS011;52677;50.898;10.854;2024-01-15T11:10:46;7.97;;;4.03;;
65896;SDS011;52677;50.898;10.854;2024-01-15T11:12:49;8.63;;;4.95;;
65896;SDS011;52677;50.898;10.854;2024-01-15T11:14:50;10.52;;;4.78;;
65896;SDS011;52677;50.898;10.854;2024-01-15T11:16:57;9.68;;;5.15;;
65896;SDS011;52677;50.898;10.854;2024-01-15T11:23:36;8.40;;;4.53;;
65896;SDS011;52677;50.898;10.854;2024-01-15T11:25:48;10.00;;;5.07;;
65896;SDS011;52677;50.898;10.854;2024-01-15T11:27:51;8.98;;;4.30;;
65896;SDS011;52677;50.898;10.854;2024-01-15T11:30:02;10.32;;;4.80;;
65896;SDS011;52677;50.898;10.854;2024-01-15T11:32:04;10.82;;;4.57;;
65896;SDS011;52677;50.898;10.854;2024-01-15T11:34:06;8.50;;;4.72;;
65896;SDS011;52677;50.898;10.854;2024-01-15T11:36:07;7.97;;;4.30;;
65896;SDS011;52677;50.898;10.854;2024-01-15T11:38:08;9.85;;;4.65;;
65896;SDS011;52677;50.898;10.854;2024-01-15T11:40:08;7.75;;;4.25;;
65896;SDS011;52677;50.898;10.854;2024-01-15T11:42:12;8.63;;;4.40;;
65896;SDS011;52677;50.898;10.854;2024-01-15T11:44:13;6.45;;;3.92;;
65896;SDS011;52677;50.898;10.854;2024-01-15T11:46:14;10.05;;;4.63;;
65896;SDS011;52677;50.898;10.854;2024-01-15T11:48:18;5.70;;;3.60;;
65896;SDS011;52677;50.898;10.854;2024-01-15T11:50:18;10.77;;;4.50;;
65896;SDS011;52677;50.898;10.854;2024-01-15T11:52:21;6.85;;;4.38;;
65896;SDS011;52677;50.898;10.854;2024-01-15T11:54:23;7.30;;;4.32;;